Portada
METAR-TAF:

METAR-TAF

Aeroports :

Dhahran, Aràbia Saudita

latitud: 26-16N, longitud: 050-09E, altitud: 26 m

Observació

L'informe es va fer fa 18 minuts, a les 17:00 UTC
Vent 1 kt amb direcció variable
Temperatura 24°C
Humitat 61%
Pressió 1016 hPa
Visibilitat 10 km o més
sense núvols per sota de 1500 mi sense presència de cumulonimbus.

METAR: OEDR 011700Z VRB01KT CAVOK 24/16 Q1016

Hora: 20:18 (17:18 UTC)

Pronòstic

L'informe es va fer fa 20 hores i 18 minuts, a les 21:00 UTC
Pronòstic vàlid del 01 a les 00 UTC al 02 a les 06 UTC
Vent 3 kt amb direcció variable
Visibilitat: 8000 m
Temporalment
l' 01 a les 00 UTC al 01 a les 06 UTC
Visibilitat: 3000 m
boirina
Evolucionant progressivament
l' 01 a les 08 UTC al 01 a les 10 UTC
Vent 5 kt del Nord/Nord-Oest
Visibilitat 10 km o més
sense núvols per sota de 1500 mi sense presència de cumulonimbus.

TAF: OEDR 302100Z 0100/0206 VRB03KT 8000 NSC TEMPO 0100/0106 3000 BR BECMG 0108/0110 33005KT CAVOK

Observacions i pronòstics meteorològics de més de 4000 aeroports (METAR i TAF).

Les estacions disponibles són els punts grocs i vermells al mapa.

Posi el ratolí al punt desitjat per veure el nom de l'estació.

Feu clic per veure les observacions i els pronòstics meteorològics.

Per canviar el mapa: feu clic els botons verds amb una creu de color negre per apropar; al botó verd amb un guió per allunyar la imatge; o en les fletxes verdes per a mapes adjacents.


METAR-TAF: